Time;durP1;ratioP1;P1;durP2;ratioP2;P2;SDS_P1;SDS_P2;PMS_P1;PMS_P2;Temp;Humidity;BMP_temperature;BMP_pressure;BME280_temperature;BME280_humidity;BME280_pressure;Samples;Min_cycle;Max_cycle;Signal;HPM_P1;HPM_P2
2023/05/21 00:02:17;;;;;;;;;0.00;0.00;;;;;-146.67;29.95;74112.63;5089231;28;62025;-83
2023/05/21 00:04:43;;;;;;;;;0.00;0.00;;;;;-146.67;30.35;74116.59;5089841;28;61644;-83
2023/05/21 00:07:09;;;;;;;;;0.00;0.00;;;;;-146.67;30.10;74108.63;5089553;28;61873;-83
2023/05/21 00:09:37;;;;;;;;;0.00;0.00;;;;;-146.67;30.66;74104.63;5089729;28;62142;-82
2023/05/21 00:12:06;;;;;;;;;0.00;0.00;;;;;-146.67;30.43;74120.59;5087856;28;63802;-83
2023/05/21 00:14:32;;;;;;;;;0.00;0.00;;;;;-146.67;30.49;74118.59;5089556;28;61875;-83
2023/05/21 00:16:57;;;;;;;;;0.00;0.00;;;;;-146.67;30.54;74112.63;5089317;28;61974;-82
2023/05/21 00:19:22;;;;;;;;;0.00;0.00;;;;;-146.67;30.54;74104.63;5089681;28;62177;-83
2023/05/21 00:21:48;;;;;;;;;0.00;0.00;;;;;-146.67;30.48;74108.63;5088695;28;61981;-84
2023/05/21 00:24:13;;;;;;;;;23.25;18.75;;;;;-146.67;30.72;74114.63;5089134;28;61901;-83
2023/05/21 00:26:39;;;;;;;;;0.00;0.00;;;;;-146.67;30.35;74114.63;5089730;28;61905;-83
2023/05/21 00:29:04;;;;;;;;;0.00;0.00;;;;;-146.67;30.45;74102.63;5089756;28;62024;-81
2023/05/21 00:31:30;;;;;;;;;0.00;0.00;;;;;-146.67;30.44;74090.66;5088590;28;61823;-83
2023/05/21 00:33:56;;;;;;;;;0.00;0.00;;;;;-146.67;30.72;74116.59;5088256;28;62035;-83
2023/05/21 00:36:22;;;;;;;;;0.00;0.00;;;;;-146.67;30.74;74122.59;5088993;28;61736;-83
2023/05/21 00:38:49;;;;;;;;;0.00;0.00;;;;;-146.67;30.55;74128.59;5089593;28;61892;-83
2023/05/21 00:41:15;;;;;;;;;0.00;0.00;;;;;-146.67;30.73;74134.56;5087333;28;63889;-83
2023/05/21 00:43:43;;;;;;;;;0.00;0.00;;;;;-146.67;30.63;74130.59;5087907;28;61703;-83
2023/05/21 00:46:15;;;;;;;;;0.00;0.00;;;;;-146.67;30.77;74126.59;5089192;28;61936;-83
2023/05/21 00:48:41;;;;;;;;;27.75;22.75;;;;;-146.67;30.93;74128.59;5088822;28;61809;-83
2023/05/21 00:51:07;;;;;;;;;0.00;0.00;;;;;-146.67;30.91;74140.56;5088424;28;61851;-83
2023/05/21 00:53:35;;;;;;;;;0.00;0.00;;;;;-146.67;31.05;74132.56;5088750;28;61857;-83
2023/05/21 00:56:01;;;;;;;;;21.25;17.50;;;;;-146.67;30.97;74144.56;5089068;28;61864;-83
2023/05/21 00:58:28;;;;;;;;;17.50;14.00;;;;;-146.67;31.26;74152.53;5089083;28;61936;-83
2023/05/21 01:00:57;;;;;;;;;0.00;0.00;;;;;-146.67;31.00;74140.56;5088239;28;61888;-83
2023/05/21 01:03:22;;;;;;;;;18.00;13.00;;;;;-146.67;31.39;74150.53;5087463;28;61884;-83
2023/05/21 01:05:52;;;;;;;;;0.00;0.00;;;;;-146.67;31.01;74138.56;5088354;28;62085;-83
2023/05/21 01:08:21;;;;;;;;;14.00;12.25;;;;;-146.67;31.03;74136.56;5088837;28;61964;-83
2023/05/21 01:10:48;;;;;;;;;0.00;0.00;;;;;-146.67;30.99;74134.56;5088380;28;62081;-83
2023/05/21 01:13:15;;;;;;;;;8.75;8.75;;;;;-146.67;31.13;74134.56;5084029;28;62063;-83
2023/05/21 01:15:42;;;;;;;;;0.00;0.00;;;;;-146.67;30.95;74128.59;5085315;28;62004;-83
2023/05/21 01:18:08;;;;;;;;;0.00;0.00;;;;;-146.67;31.12;74138.56;5085276;28;61907;-83
2023/05/21 01:20:33;;;;;;;;;0.00;0.00;;;;;-146.67;31.39;74158.53;5084690;28;62839;-83
2023/05/21 01:22:59;;;;;;;;;0.00;0.00;;;;;-146.67;31.16;74158.53;5085310;28;61860;-83
2023/05/21 01:25:24;;;;;;;;;0.00;0.00;;;;;-146.67;31.37;74164.53;5085413;27;61688;-83
2023/05/21 01:27:51;;;;;;;;;16.75;14.50;;;;;-146.67;31.41;74156.53;5083854;28;61879;-83
2023/05/21 01:30:18;;;;;;;;;0.00;0.00;;;;;-146.67;31.28;74160.53;5084656;28;61914;-83
2023/05/21 01:32:49;;;;;;;;;14.50;14.50;;;;;-146.67;31.22;74162.53;5084979;28;61943;-83
2023/05/21 01:35:40;;;;;;;;;0.00;0.00;;;;;-146.67;31.38;74166.50;5084845;28;61855;-83
2023/05/21 01:38:21;;;;;;;;;0.00;0.00;;;;;-146.67;31.39;74174.50;5085493;28;61814;-83
2023/05/21 01:40:54;;;;;;;;;13.00;12.50;;;;;-146.67;31.28;74168.50;5084196;28;63146;-83
2023/05/21 01:43:22;;;;;;;;;0.00;0.00;;;;;-146.67;31.11;74162.53;5085122;28;61850;-83
2023/05/21 01:45:52;;;;;;;;;0.00;0.00;;;;;-146.67;31.17;74170.50;5085037;28;61793;-83
2023/05/21 01:48:19;;;;;;;;;0.00;0.00;;;;;-146.67;31.62;74180.50;5084817;28;61928;-83
2023/05/21 01:50:44;;;;;;;;;0.00;0.00;;;;;-146.67;31.34;74186.47;5084383;28;62084;-83
2023/05/21 01:53:10;;;;;;;;;0.00;0.00;;;;;-146.67;31.45;74172.50;5083610;28;62033;-83
2023/05/21 01:55:38;;;;;;;;;7.75;7.75;;;;;-146.67;31.41;74180.50;5083640;27;61755;-83
2023/05/21 01:58:03;;;;;;;;;14.25;13.25;;;;;-146.67;31.64;74184.47;5084809;28;61728;-83
2023/05/21 02:00:31;;;;;;;;;0.00;0.00;;;;;-146.67;31.46;74166.50;5082818;28;63675;-83
2023/05/21 02:02:57;;;;;;;;;0.00;0.00;;;;;-146.67;31.48;74158.53;5084369;28;61956;-82
2023/05/21 02:05:23;;;;;;;;;15.00;15.00;;;;;-146.67;31.40;74156.53;5083169;28;62004;-83
2023/05/21 02:07:50;;;;;;;;;0.00;0.00;;;;;-146.67;31.41;74168.50;5085461;28;61799;-82
2023/05/21 02:10:16;;;;;;;;;15.00;14.25;;;;;-146.67;31.47;74172.50;5084032;28;62093;-83
2023/05/21 02:12:42;;;;;;;;;0.00;0.00;;;;;-146.67;31.49;74176.50;5084552;28;61786;-83
2023/05/21 02:15:08;;;;;;;;;15.25;14.75;;;;;-146.67;31.73;74182.50;5084169;28;61758;-83
2023/05/21 02:17:34;;;;;;;;;12.00;10.50;;;;;-146.67;31.76;74178.50;5082614;28;61741;-83
2023/05/21 02:20:12;;;;;;;;;14.25;12.50;;;;;-146.67;31.79;74174.50;5083922;28;61967;-83
2023/05/21 02:22:43;;;;;;;;;0.00;0.00;;;;;-146.67;31.46;74168.50;5084433;28;61803;-83
2023/05/21 02:25:11;;;;;;;;;0.00;0.00;;;;;-146.67;31.40;74150.53;5081901;28;62064;-83
2023/05/21 02:27:38;;;;;;;;;18.00;14.50;;;;;-146.67;31.17;74144.56;5084341;28;62065;-83
2023/05/21 02:30:06;;;;;;;;;11.00;9.50;;;;;-146.67;31.54;74150.53;5083658;28;61987;-83
2023/05/21 02:32:32;;;;;;;;;0.00;0.00;;;;;-146.67;31.32;74174.50;5082795;28;61866;-83
2023/05/21 02:34:58;;;;;;;;;8.25;8.25;;;;;-146.67;31.45;74170.50;5084280;28;61901;-83
2023/05/21 02:37:26;;;;;;;;;2.00;2.00;;;;;-146.67;31.31;74142.56;5084641;28;61796;-83
2023/05/21 02:39:52;;;;;;;;;0.00;0.00;;;;;-146.67;31.06;74138.56;5083729;28;61704;-83
2023/05/21 02:42:17;;;;;;;;;19.75;17.50;;;;;-146.67;31.85;74198.47;5082320;28;62003;-83
2023/05/21 02:44:43;;;;;;;;;21.50;17.50;;;;;-146.67;31.82;74208.44;5082481;28;61861;-83
2023/05/21 02:47:09;;;;;;;;;10.75;9.25;;;;;-146.67;32.10;74242.38;5083486;28;61852;-83
2023/05/21 02:49:34;;;;;;;;;12.75;12.25;;;;;-146.67;32.40;74264.34;5083368;28;62996;-83
2023/05/21 02:52:00;;;;;;;;;13.25;11.00;;;;;-146.67;32.62;74276.31;5084064;28;61816;-83
2023/05/21 02:54:25;;;;;;;;;20.00;18.00;;;;;-146.67;32.63;74286.28;5083462;28;61981;-83
2023/05/21 02:56:51;;;;;;;;;16.00;16.00;;;;;-146.67;32.48;74292.28;5082521;28;62133;-83
2023/05/21 02:59:16;;;;;;;;;8.25;7.75;;;;;-146.67;32.53;74256.34;5083160;28;62925;-83
2023/05/21 03:01:43;;;;;;;;;15.50;15.00;;;;;-146.67;32.24;74242.38;5083115;28;61933;-83
2023/05/21 03:04:09;;;;;;;;;0.00;0.00;;;;;-146.67;32.07;74224.41;5083656;28;61933;-83
2023/05/21 03:06:35;;;;;;;;;16.50;13.00;;;;;-146.67;32.12;74224.41;5083950;28;61730;-83
2023/05/21 03:09:01;;;;;;;;;17.00;12.50;;;;;-146.67;32.30;74252.34;5082904;28;62116;-84
2023/05/21 03:11:27;;;;;;;;;24.00;17.00;;;;;-146.67;32.62;74280.31;5083155;28;61856;-84
2023/05/21 03:13:52;;;;;;;;;15.75;14.75;;;;;-146.67;32.75;74306.25;5083381;28;61929;-84
2023/05/21 03:16:18;;;;;;;;;11.50;10.00;;;;;-146.67;33.15;74316.25;5083352;28;61754;-83
2023/05/21 03:18:43;;;;;;;;;12.25;9.00;;;;;-146.67;32.62;74324.22;5082690;28;61864;-84
2023/05/21 03:21:12;;;;;;;;;18.75;16.50;;;;;-146.67;32.98;74336.19;5081832;28;62007;-83
2023/05/21 03:23:37;;;;;;;;;12.25;10.50;;;;;-146.67;33.32;74358.16;5082353;28;61896;-84
2023/05/21 03:26:03;;;;;;;;;18.00;15.75;;;;;-146.67;33.11;74374.13;5082076;28;61781;-84
2023/05/21 03:28:29;;;;;;;;;18.50;16.00;;;;;-146.67;33.80;74392.09;5082562;28;61867;-84
2023/05/21 03:30:54;;;;;;;;;27.50;16.75;;;;;-146.67;33.51;74386.13;5082592;28;62113;-84
2023/05/21 03:33:21;;;;;;;;;17.25;16.00;;;;;-146.67;33.65;74384.13;5081846;28;61918;-84
2023/05/21 03:35:47;;;;;;;;;22.25;18.25;;;;;-146.67;33.39;74378.13;5082917;28;61867;-84
2023/05/21 03:38:12;;;;;;;;;23.50;22.00;;;;;-146.67;33.35;74384.13;5082533;28;61853;-84
2023/05/21 03:40:37;;;;;;;;;17.75;16.00;;;;;-146.67;33.62;74390.09;5083182;28;61857;-84
2023/05/21 03:43:03;;;;;;;;;24.25;20.25;;;;;-146.67;33.46;74394.09;5082943;28;61854;-84
2023/05/21 03:45:28;;;;;;;;;16.75;15.50;;;;;-146.67;33.27;74382.13;5082563;28;61820;-83
2023/05/21 03:47:53;;;;;;;;;19.75;18.50;;;;;-146.67;33.32;74380.13;5081908;28;63158;-84
2023/05/21 03:50:19;;;;;;;;;19.25;18.25;;;;;-146.67;33.33;74384.13;5082779;28;61891;-84
2023/05/21 03:52:44;;;;;;;;;17.75;16.50;;;;;-146.67;33.29;74404.09;5081346;28;61864;-84
2023/05/21 03:55:10;;;;;;;;;17.50;16.50;;;;;-146.67;33.52;74404.09;5081718;28;61853;-84
2023/05/21 03:57:36;;;;;;;;;19.00;18.00;;;;;-146.67;33.52;74410.06;5082242;28;62669;-84
2023/05/21 04:00:01;;;;;;;;;25.50;18.25;;;;;-146.67;33.84;74428.03;5082222;28;61865;-84
2023/05/21 04:02:27;;;;;;;;;20.75;19.75;;;;;-146.67;33.77;74426.03;5082659;28;61818;-84
2023/05/21 04:04:52;;;;;;;;;21.00;17.25;;;;;-146.67;34.13;74428.03;5082630;28;61832;-84
2023/05/21 04:07:18;;;;;;;;;22.75;20.00;;;;;-146.67;33.62;74426.03;5080791;28;64961;-84
2023/05/21 04:09:44;;;;;;;;;24.00;20.75;;;;;-146.67;33.60;74438.03;5082575;28;61806;-84
2023/05/21 04:12:10;;;;;;;;;20.75;19.50;;;;;-146.67;33.80;74436.03;5081181;28;61903;-84
2023/05/21 04:14:36;;;;;;;;;23.75;18.50;;;;;-146.67;33.65;74432.03;5082394;28;61725;-83
2023/05/21 04:17:04;;;;;;;;;21.50;19.25;;;;;-146.67;33.79;74434.03;5081515;28;61802;-84
2023/05/21 04:19:30;;;;;;;;;23.50;18.00;;;;;-146.67;33.67;74428.03;5082382;28;61805;-84
2023/05/21 04:21:56;;;;;;;;;25.00;19.50;;;;;-146.67;33.69;74436.03;5082583;28;61842;-83
2023/05/21 04:24:22;;;;;;;;;22.00;19.25;;;;;-146.67;33.78;74428.03;5081325;28;61809;-83
2023/05/21 04:26:48;;;;;;;;;21.00;19.75;;;;;-146.67;34.00;74436.03;5081685;28;63351;-84
2023/05/21 04:29:16;;;;;;;;;24.75;21.00;;;;;-146.67;33.55;74438.03;5082197;28;61996;-83
2023/05/21 04:31:42;;;;;;;;;25.25;20.00;;;;;-146.67;34.09;74446.00;5082159;28;61846;-84
2023/05/21 04:34:08;;;;;;;;;18.50;16.50;;;;;-146.67;34.00;74446.00;5082513;28;61846;-84
2023/05/21 04:36:33;;;;;;;;;21.50;18.50;;;;;-146.67;34.06;74454.00;5081851;28;62917;-84
2023/05/21 04:38:59;;;;;;;;;21.25;16.50;;;;;-146.67;33.36;74452.00;5082176;28;61802;-84
2023/05/21 04:41:24;;;;;;;;;19.25;18.25;;;;;-146.67;33.80;74459.97;5082021;28;61974;-84
2023/05/21 04:43:53;;;;;;;;;20.75;17.50;;;;;-146.67;34.08;74469.97;5081793;28;61868;-84
2023/05/21 04:46:23;;;;;;;;;22.50;19.50;;;;;-146.67;34.11;74457.97;5081333;28;61813;-84
2023/05/21 04:48:52;;;;;;;;;19.00;17.25;;;;;-146.67;33.93;74442.00;5082751;28;62126;-83
2023/05/21 04:51:18;;;;;;;;;22.25;18.00;;;;;-146.67;33.77;74416.06;5085536;28;62027;-83
2023/05/21 04:53:43;;;;;;;;;22.25;17.75;;;;;-146.67;33.60;74388.09;5083931;28;62142;-83
2023/05/21 04:56:08;;;;;;;;;25.25;20.25;;;;;-146.67;33.35;74378.13;5084892;28;63207;-83
2023/05/21 04:58:34;;;;;;;;;23.00;17.25;;;;;-146.67;33.43;74378.13;5083795;28;61852;-84
2023/05/21 05:01:01;;;;;;;;;18.00;16.25;;;;;-146.67;33.16;74384.13;5085194;28;61770;-84
2023/05/21 05:03:27;;;;;;;;;25.00;18.75;;;;;-146.67;33.43;74366.16;5084046;28;62145;-84
2023/05/21 05:05:52;;;;;;;;;19.50;16.75;;;;;-146.67;33.30;74358.16;5084532;28;62946;-84
2023/05/21 05:08:18;;;;;;;;;22.75;21.75;;;;;-146.67;33.11;74346.19;5083939;28;61873;-83
2023/05/21 05:10:43;;;;;;;;;22.75;19.50;;;;;-146.67;33.10;74342.19;5085570;28;61917;-83
2023/05/21 05:13:09;;;;;;;;;25.50;19.50;;;;;-146.67;32.97;74320.22;5085109;28;61842;-83
2023/05/21 05:15:34;;;;;;;;;27.00;19.75;;;;;-146.67;32.82;74302.25;5084636;28;62138;-83
2023/05/21 05:18:00;;;;;;;;;30.25;18.75;;;;;-146.67;32.42;74288.28;5084769;28;62136;-83
2023/05/21 05:20:26;;;;;;;;;18.50;17.00;;;;;-146.67;32.53;74286.28;5083892;28;61971;-83
2023/05/21 05:22:51;;;;;;;;;22.75;20.75;;;;;-146.67;32.53;74280.31;5085270;28;62210;-83
2023/05/21 05:25:17;;;;;;;;;23.50;20.75;;;;;-146.67;32.28;74296.28;5084693;28;62727;-84
2023/05/21 05:27:42;;;;;;;;;22.00;20.75;;;;;-146.67;32.39;74280.31;5084688;28;61956;-83
2023/05/21 05:30:08;;;;;;;;;20.25;20.00;;;;;-146.67;32.43;74282.31;5084738;28;61818;-83
2023/05/21 05:32:34;;;;;;;;;22.25;20.50;;;;;-146.67;32.52;74300.28;5085383;28;61718;-84
2023/05/21 05:34:59;;;;;;;;;23.00;21.75;;;;;-146.67;32.67;74310.25;5084098;28;62527;-83
2023/05/21 05:37:24;;;;;;;;;22.50;21.00;;;;;-146.67;32.58;74318.25;5083637;28;61797;-83
2023/05/21 05:39:50;;;;;;;;;22.25;20.00;;;;;-146.67;32.74;74320.22;5085025;28;61747;-83
2023/05/21 05:42:15;;;;;;;;;23.00;21.75;;;;;-146.67;32.72;74324.22;5084612;28;62162;-83
2023/05/21 05:44:41;;;;;;;;;25.25;22.50;;;;;-146.67;32.94;74334.22;5084129;28;61939;-83
2023/05/21 05:47:09;;;;;;;;;23.25;21.50;;;;;-146.67;32.46;74318.25;5084219;28;61731;-84
2023/05/21 05:49:35;;;;;;;;;30.00;25.25;;;;;-146.67;32.75;74338.19;5083284;28;61970;-83
2023/05/21 05:52:00;;;;;;;;;29.50;23.00;;;;;-146.67;32.83;74336.19;5083626;28;61973;-84
2023/05/21 05:54:26;;;;;;;;;22.50;15.75;;;;;-146.67;32.30;74332.22;5083975;28;63149;-84
2023/05/21 05:56:51;;;;;;;;;25.25;22.00;;;;;-146.67;32.68;74326.22;5082843;28;61978;-83
2023/05/21 05:59:16;;;;;;;;;25.00;19.75;;;;;-146.67;32.62;74306.25;5084276;28;61867;-83
2023/05/21 06:01:42;;;;;;;;;25.25;21.50;;;;;-146.67;32.30;74274.31;5084451;28;61854;-83
2023/05/21 06:04:07;;;;;;;;;0.00;0.00;;;;;-146.67;32.04;74254.34;5084106;27;63951;-83
2023/05/21 06:06:33;;;;;;;;;19.50;19.25;;;;;-146.67;31.99;74228.41;5084574;28;61790;-83
2023/05/21 06:08:59;;;;;;;;;22.50;20.50;;;;;-146.67;31.82;74170.50;5084456;28;62064;-84
2023/05/21 06:11:25;;;;;;;;;28.00;20.75;;;;;-146.67;31.33;74108.63;5084295;28;61801;-83
2023/05/21 06:13:50;;;;;;;;;18.00;16.50;;;;;-146.67;30.88;74034.75;5082355;28;65087;-83
2023/05/21 06:16:16;;;;;;;;;26.00;24.75;;;;;-146.67;30.41;73992.84;5099735;27;62126;-83
2023/05/21 06:18:42;;;;;;;;;19.25;16.75;;;;;-146.67;30.40;74010.81;5084027;28;61994;-83
2023/05/21 06:21:07;;;;;;;;;27.75;21.00;;;;;-146.67;30.46;74068.69;5084521;28;62097;-84
2023/05/21 06:23:35;;;;;;;;;24.25;15.75;;;;;-146.67;30.92;74142.56;5083458;28;62768;-83
2023/05/21 06:26:00;;;;;;;;;25.75;20.00;;;;;-146.67;31.25;74146.56;5083897;28;61916;-84
2023/05/21 06:28:26;;;;;;;;;24.00;21.00;;;;;-146.67;31.34;74152.53;5099822;27;62136;-83
2023/05/21 06:30:51;;;;;;;;;23.00;20.50;;;;;-146.67;31.52;74176.50;5084223;28;61840;-84
2023/05/21 06:33:17;;;;;;;;;26.00;19.50;;;;;-146.67;31.55;74170.50;5083375;28;61995;-83
2023/05/21 06:35:42;;;;;;;;;16.50;12.50;;;;;-146.67;31.56;74176.50;5084278;28;61875;-84
2023/05/21 06:38:07;;;;;;;;;22.50;15.75;;;;;-146.67;31.45;74174.50;5082597;28;62258;-84
2023/05/21 06:40:34;;;;;;;;;19.25;17.25;;;;;-146.67;31.62;74140.56;5082285;28;61738;-83
2023/05/21 06:42:59;;;;;;;;;0.00;0.00;;;;;-146.67;31.11;74092.66;5083382;28;62063;-83
2023/05/21 06:45:25;;;;;;;;;9.67;9.67;;;;;-146.67;30.70;74052.72;5083674;28;62075;-83
2023/05/21 06:47:50;;;;;;;;;0.00;0.00;;;;;-146.67;30.57;74012.81;5083798;28;62075;-83
2023/05/21 06:50:16;;;;;;;;;24.25;18.00;;;;;-146.67;30.58;73986.84;5099379;27;62122;-83
2023/05/21 06:52:41;;;;;;;;;24.50;19.25;;;;;-146.67;30.03;73960.91;5082964;28;62121;-83
2023/05/21 06:55:07;;;;;;;;;19.25;18.00;;;;;-146.67;29.72;73932.97;5083431;28;62119;-83
2023/05/21 06:57:32;;;;;;;;;0.00;0.00;;;;;-146.67;29.76;73920.97;5082335;28;61935;-83
2023/05/21 06:59:58;;;;;;;;;0.00;0.00;;;;;-146.67;29.83;73901.03;5084082;28;62200;-84
2023/05/21 07:02:23;;;;;;;;;0.00;0.00;;;;;-146.67;29.72;73891.03;5083043;27;63320;-84
2023/05/21 07:04:48;;;;;;;;;13.25;11.75;;;;;-146.67;29.49;73871.06;5082999;28;61686;-83
2023/05/21 07:07:14;;;;;;;;;0.00;0.00;;;;;-146.67;29.80;73885.06;5082438;28;61983;-83
2023/05/21 07:09:39;;;;;;;;;0.00;0.00;;;;;-146.67;29.36;73871.06;5082888;28;62112;-83
2023/05/21 07:12:05;;;;;;;;;0.00;0.00;;;;;-146.67;29.60;73855.09;5081828;28;64628;-83
2023/05/21 07:14:31;;;;;;;;;0.00;0.00;;;;;-146.67;29.35;73871.06;5083761;28;61844;-84
2023/05/21 07:16:56;;;;;;;;;0.00;0.00;;;;;-146.67;29.29;73867.09;5083148;28;61813;-83
2023/05/21 07:19:21;;;;;;;;;0.00;0.00;;;;;-146.67;29.80;73871.06;5083990;28;61746;-83
2023/05/21 07:21:48;;;;;;;;;0.00;0.00;;;;;-146.67;29.63;73863.09;5082795;28;62692;-84
2023/05/21 07:24:14;;;;;;;;;0.00;0.00;;;;;-146.67;29.25;73855.09;5083688;28;61781;-84
2023/05/21 07:26:39;;;;;;;;;0.00;0.00;;;;;-146.67;29.40;73849.13;5083629;28;61983;-84
2023/05/21 07:29:05;;;;;;;;;0.00;0.00;;;;;-146.67;29.51;73869.09;5083710;28;61829;-84
2023/05/21 07:31:30;;;;;;;;;0.00;0.00;;;;;-146.67;29.34;73879.06;5082737;28;61870;-84
2023/05/21 07:33:56;;;;;;;;;0.33;0.33;;;;;-146.67;29.49;73909.00;5083605;28;61750;-84
2023/05/21 07:36:21;;;;;;;;;0.00;0.00;;;;;-146.67;30.01;73909.00;5083258;28;61895;-83
2023/05/21 07:38:46;;;;;;;;;0.00;0.00;;;;;-146.67;29.74;73911.00;5083593;28;61787;-84
2023/05/21 07:41:12;;;;;;;;;0.00;0.00;;;;;-146.67;29.78;73917.00;5081561;28;63458;-84
2023/05/21 07:43:37;;;;;;;;;0.00;0.00;;;;;-146.67;29.51;73909.00;5083202;28;61802;-83
2023/05/21 07:46:02;;;;;;;;;0.00;0.00;;;;;-146.67;29.66;73915.00;5083360;28;61948;-83
2023/05/21 07:48:28;;;;;;;;;0.00;0.00;;;;;-146.67;29.48;73909.00;5083070;28;61768;-83
2023/05/21 07:50:55;;;;;;;;;0.00;0.00;;;;;-146.67;29.88;73903.00;5082248;28;62176;-82
2023/05/21 07:53:20;;;;;;;;;0.00;0.00;;;;;-146.67;29.67;73901.03;5083118;28;61782;-83
2023/05/21 07:55:46;;;;;;;;;0.00;0.00;;;;;-146.67;29.46;73895.03;5083205;28;61777;-84
2023/05/21 07:58:16;;;;;;;;;0.00;0.00;;;;;-146.67;29.85;73922.97;5083398;28;61965;-84
2023/05/21 08:00:44;;;;;;;;;0.00;0.00;;;;;-146.67;29.58;73917.00;5082154;28;62772;-83
2023/05/21 08:03:10;;;;;;;;;0.00;0.00;;;;;-146.67;29.72;73905.00;5083086;28;61941;-83
2023/05/21 08:05:36;;;;;;;;;0.00;0.00;;;;;-146.67;29.49;73928.97;5082404;28;61888;-83
2023/05/21 08:08:03;;;;;;;;;0.00;0.00;;;;;-146.67;29.52;73918.97;5081812;28;61800;-83
2023/05/21 08:10:29;;;;;;;;;0.00;0.00;;;;;-146.67;29.84;73911.00;5082429;28;62047;-83
2023/05/21 08:12:54;;;;;;;;;0.00;0.00;;;;;-146.67;29.83;73895.03;5081260;28;61840;-83
2023/05/21 08:15:20;;;;;;;;;0.00;0.00;;;;;-146.67;29.26;73885.06;5081539;28;61899;-83
2023/05/21 08:17:45;;;;;;;;;0.00;0.00;;;;;-146.67;29.72;73895.03;5082531;28;61892;-83
2023/05/21 08:20:12;;;;;;;;;0.00;0.00;;;;;-146.67;29.58;73885.06;5080641;28;63945;-83
2023/05/21 08:22:37;;;;;;;;;15.50;15.00;;;;;-146.67;29.48;73915.00;5084084;28;61991;-83
2023/05/21 08:25:03;;;;;;;;;0.00;0.00;;;;;-146.67;29.68;73911.00;5086284;28;62429;-83
2023/05/21 08:27:28;;;;;;;;;0.00;0.00;;;;;-146.67;29.66;73913.00;5086670;28;61943;-83
2023/05/21 08:29:54;;;;;;;;;12.75;11.75;;;;;-146.67;29.50;73909.00;5085265;28;62794;-83
2023/05/21 08:32:19;;;;;;;;;0.00;0.00;;;;;-146.67;29.36;73897.03;5086306;28;61820;-83
2023/05/21 08:34:45;;;;;;;;;0.00;0.00;;;;;-146.67;29.26;73887.03;5086196;28;61963;-84
2023/05/21 08:37:10;;;;;;;;;0.00;0.00;;;;;-146.67;29.59;73897.03;5086493;28;61754;-84
2023/05/21 08:39:36;;;;;;;;;0.00;0.00;;;;;-146.67;29.33;73897.03;5085585;28;61995;-83
2023/05/21 08:42:14;;;;;;;;;0.00;0.00;;;;;-146.67;29.57;73899.03;5085970;28;61777;-83
2023/05/21 08:44:43;;;;;;;;;0.00;0.00;;;;;-146.67;29.38;73895.03;5086177;28;61828;-83
2023/05/21 08:47:14;;;;;;;;;12.50;10.00;;;;;-146.67;29.18;73895.03;5084021;28;62408;-83
2023/05/21 08:49:41;;;;;;;;;0.00;0.00;;;;;-146.67;29.41;73889.03;5085112;28;62003;-83
2023/05/21 08:52:07;;;;;;;;;9.50;8.50;;;;;-146.67;28.92;73873.06;5085569;28;61987;-83
2023/05/21 08:54:35;;;;;;;;;0.00;0.00;;;;;-146.67;28.92;73861.09;5085861;28;61778;-83
2023/05/21 08:57:02;;;;;;;;;0.00;0.00;;;;;-146.67;28.95;73847.13;5085931;28;61987;-84
2023/05/21 08:59:28;;;;;;;;;0.00;0.00;;;;;-146.67;28.98;73843.13;5085237;28;61870;-83
2023/05/21 09:01:56;;;;;;;;;0.00;0.00;;;;;-146.67;28.98;73833.16;5085784;28;62065;-83
2023/05/21 09:04:22;;;;;;;;;0.00;0.00;;;;;-146.67;28.73;73847.13;5084045;28;61907;-83
2023/05/21 09:06:49;;;;;;;;;0.00;0.00;;;;;-146.67;28.64;73853.13;5084665;28;61864;-83
2023/05/21 09:09:32;;;;;;;;;0.00;0.00;;;;;-146.67;29.00;73851.13;5083765;28;65279;-83
2023/05/21 09:11:57;;;;;;;;;0.00;0.00;;;;;-146.67;28.88;73837.16;5086048;28;62228;-84
2023/05/21 09:14:23;;;;;;;;;0.00;0.00;;;;;-146.67;28.75;73837.16;5085549;28;62254;-83
2023/05/21 09:16:49;;;;;;;;;0.00;0.00;;;;;-146.67;28.82;73823.16;5085113;28;62027;-82
2023/05/21 09:19:14;;;;;;;;;0.00;0.00;;;;;-146.67;28.96;73851.13;5084642;28;61906;-83
2023/05/21 09:21:39;;;;;;;;;0.00;0.00;;;;;-146.67;28.84;73835.16;5084020;28;61848;-83
2023/05/21 09:24:08;;;;;;;;;0.00;0.00;;;;;-146.67;28.78;73823.16;5085440;28;61836;-83
2023/05/21 09:26:34;;;;;;;;;0.00;0.00;;;;;-146.67;28.64;73817.19;5084413;28;61810;-83
2023/05/21 09:29:00;;;;;;;;;0.00;0.00;;;;;-146.67;29.01;73809.19;5083429;28;63634;-83
2023/05/21 09:31:26;;;;;;;;;7.00;7.00;;;;;-146.67;28.82;73809.19;5085224;28;61743;-83
2023/05/21 09:33:52;;;;;;;;;0.00;0.00;;;;;-146.67;28.89;73803.22;5083092;28;61790;-83
2023/05/21 09:36:21;;;;;;;;;0.00;0.00;;;;;-146.67;28.53;73793.22;5085325;28;62295;-83
2023/05/21 09:38:47;;;;;;;;;0.00;0.00;;;;;-146.67;28.86;73787.25;5083163;28;63656;-83
2023/05/21 09:41:13;;;;;;;;;0.00;0.00;;;;;-146.67;28.40;73775.25;5085153;28;61747;-83
2023/05/21 09:43:42;;;;;;;;;0.00;0.00;;;;;-146.67;28.75;73757.31;5085152;28;62165;-83
2023/05/21 09:46:08;;;;;;;;;0.00;0.00;;;;;-146.67;28.51;73741.34;5085039;28;62043;-83
2023/05/21 09:48:33;;;;;;;;;0.00;0.00;;;;;-146.67;28.24;73723.38;5083739;28;61691;-83
2023/05/21 09:51:14;;;;;;;;;0.00;0.00;;;;;-146.67;28.18;73701.41;5083587;28;61986;-83
2023/05/21 09:53:43;;;;;;;;;0.00;0.00;;;;;-146.67;28.33;73719.38;5084923;28;61862;-83
2023/05/21 09:56:09;;;;;;;;;0.00;0.00;;;;;-146.67;28.29;73675.47;5085319;28;61887;-84
2023/05/21 09:58:34;;;;;;;;;0.00;0.00;;;;;-146.67;27.81;73623.56;5084434;28;61816;-84
2023/05/21 10:01:00;;;;;;;;;0.00;0.00;;;;;-146.67;27.76;73595.63;5084837;28;62032;-83
2023/05/21 10:03:27;;;;;;;;;0.00;0.00;;;;;-146.67;27.57;73573.66;5084470;28;61897;-84
2023/05/21 10:05:54;;;;;;;;;0.00;0.00;;;;;-146.67;27.53;73569.66;5084868;28;61750;-84
2023/05/21 10:08:24;;;;;;;;;0.00;0.00;;;;;-146.67;27.79;73573.66;5084113;28;61695;-84
2023/05/21 10:10:49;;;;;;;;;0.00;0.00;;;;;-146.67;27.42;73557.69;5084682;28;61889;-84
2023/05/21 10:13:20;;;;;;;;;0.00;0.00;;;;;-146.67;27.39;73541.72;5084870;28;61837;-84
2023/05/21 10:15:58;;;;;;;;;0.00;0.00;;;;;-146.67;27.18;73507.78;5084633;28;61774;-83
2023/05/21 10:18:24;;;;;;;;;0.00;0.00;;;;;-146.67;27.10;73469.88;5083317;28;61936;-83
2023/05/21 10:20:50;;;;;;;;;0.00;0.00;;;;;-146.67;27.13;73429.97;5083272;28;61734;-84
2023/05/21 10:23:17;;;;;;;;;0.00;0.00;;;;;-146.67;26.79;73402.00;5083375;28;61968;-84
2023/05/21 10:25:44;;;;;;;;;0.00;0.00;;;;;-146.67;26.56;73404.00;5083295;28;62026;-84
2023/05/21 10:28:10;;;;;;;;;0.00;0.00;;;;;-146.67;27.10;73439.94;5083671;27;61892;-84
2023/05/21 10:30:36;;;;;;;;;0.67;0.00;;;;;-146.67;26.82;73429.97;5082619;28;61719;-84
2023/05/21 10:33:03;;;;;;;;;0.00;0.00;;;;;-146.67;26.62;73410.00;5084523;28;61895;-84
2023/05/21 10:35:29;;;;;;;;;0.00;0.00;;;;;-146.67;26.44;73382.06;5084379;28;61799;-84
2023/05/21 10:37:56;;;;;;;;;0.00;0.00;;;;;-146.67;26.48;73342.13;5083897;28;61855;-84
2023/05/21 10:40:21;;;;;;;;;0.00;0.00;;;;;-146.67;26.59;73326.16;5082814;28;61715;-84
2023/05/21 10:43:11;;;;;;;;;0.00;0.00;;;;;-146.67;26.48;73308.22;5083980;28;61929;-84
2023/05/21 10:46:01;;;;;;;;;0.00;0.00;;;;;-146.67;26.08;73296.22;5081281;28;62080;-84
2023/05/21 10:49:00;;;;;;;;;0.00;0.00;;;;;-146.67;26.36;73266.28;5083216;28;61957;-84
2023/05/21 10:51:54;;;;;;;;;0.00;0.00;;;;;-146.67;26.05;73278.28;5074473;28;62017;-84
2023/05/21 10:54:38;;;;;;;;;0.00;0.00;;;;;-146.67;26.20;73330.16;5083975;27;61780;-84
2023/05/21 10:57:25;;;;;;;;;0.00;0.00;;;;;-146.67;26.14;73340.13;5081580;28;61861;-83
2023/05/21 10:59:51;;;;;;;;;0.00;0.00;;;;;-146.67;26.42;73326.16;5079666;27;64915;-83
2023/05/21 11:02:18;;;;;;;;;0.00;0.00;;;;;-146.67;26.08;73302.22;5082654;27;63772;-83
2023/05/21 11:04:44;;;;;;;;;0.00;0.00;;;;;-146.67;26.04;73280.25;5083337;27;61981;-83
2023/05/21 11:07:11;;;;;;;;;0.00;0.00;;;;;-146.67;26.33;73242.34;5084108;27;61895;-82
2023/05/21 11:09:37;;;;;;;;;0.00;0.00;;;;;-146.67;26.36;73226.38;5083300;27;61987;-83